Plum Island, Massachusetts
Current Conditions -  °F | °C
As of 10:54 PM on Tuesday 21 Oct 2014 (Local Time) from KLWM Reporting Station
Overcast Overcast  
Wind Chill: 51°   Ceiling: 600
Heat Index: 51°   Visibility: 10mi
Dew Point: 49°   Wind: 14mph
Humidity: 92%   Direction: 360°N
Pressure: 30.03"   Gusts: NA
Location:  42.7802°N, 70.8638°W
Report Text: KLWM 220254Z 36012KT 10SM OVC006 11/09 A3003 RMK AO2 SLP169 T01060094 52017
Loading
Personal Weather Stations






























Interactive Weather Map
Tropical Storm Tracking
New forecast layout! Learn more

10-Day Weather Forecast

Advertisements
Track Severe Weather on mobile